Strona główna
METAR-TAF:

METAR-TAF

Lotnisko :

Port lotniczy Sukhothai

Sukhothai, Tajlandia

Szerokość geograficzna: 17-14-16N, Długość geograficzna: 099-49-05E, wysokość: 55 m

Aktualna obserwacja pogody

Raport powstał 7 godziny i 24 minut temu, godzina 10:00 UTC
Wiatr 2 kt z kierunków zmiennych
Temperatura 33°C
Wilgotność 49%
Ciśnienie 1008 hPa
Widzialność 10 km lub więcej
Mało chmury na wysokości 2500 ft

METAR: VTPO 121000Z VRB02KT 9999 FEW025 33/21 Q1008 NOSIG

czas: 00:24 (17:24 UTC)

Prognoza

Raport powstał 6 godziny i 24 minut temu, godzina 11:00 UTC
Prognoza ważna od 12 godzina 12 UTC do 13 godzina 12 UTC
Wiatr 5 kt od północny wschód
Widzialność 10 km lub więcej
Mało chmury na wysokości 2500 ft
Stopniowe zmiany
od 12 godzina 21 UTC do 12 godzina 23 UTC
Widzialność: 4000 m
zamglenie
Stopniowe zmiany
od 13 godzina 01 UTC do 13 godzina 03 UTC
Widzialność 10 km lub więcej

TAF: VTPO 121100Z 1212/1312 04005KT 9999 FEW025 BECMG 1221/1223 4000 BR BECMG 1301/1303 9999 NSW

Obserwacja i prognoza pogody dla ponad 4000 lotnisk (raport METAR i TAF).

Dostępne stacje oznaczono żółtymi i czerwonymi punktami na mapie.

Najedź kursorem aby zobaczyć nazwę stacji.

Kliknij aby zobaczyć obserwacje i prognozy pogody.

Aby zmienić mapę: kliknij na zielony przycisk z czarnym krzyżykiem, aby powiększyć; na zielony przycisk z myślnikiem, aby pomniejszyć; na zielone strzałki, aby przejść do map sąsiednich.


METAR-TAF: